GMMH

Dakhla Airport

Dakhla, Western Sahara
METAR GMMH 191700Z 02021KT CAVOK 24/17 Q1012 NOSIG
Observed Flight Rules
Aug-19 @ 17:00 UTC (13 minutes ago) Visual Flight Rules
Wind Visibility Clouds
20° at 21 knots 10,000+ meters
  • Clear skies
Temperatures Readings
Current 24°C / 75°F
Dewpoint 17°C / 63°F
Humidity 65%
Altimeter 29.88" Hg
Pressure 1012 hPa
Elevation 11
METAR GMMH 191700Z 02021KT CAVOK 24/17 Q1012 NOSIG
Observed Flight Rules
Aug-19 @ 17:00 UTC
(13 minutes ago)
VFR
Wind Visibility
20° at 21 knots 10,000+ meters
Clouds
  • Clear skies
Temperature Dewpoint
24°C / 75°F 17°C / 63°F
Humidity Altimeter Pressure
65% 29.88" Hg 1012 hPa